createdAt,value
2022-07-29T00:00:22.716Z,65.56
2022-07-29T00:01:22.727Z,66.04
2022-07-29T00:02:22.775Z,65.94
2022-07-29T00:03:22.858Z,66.04
2022-07-29T00:04:22.876Z,66.04
2022-07-29T00:05:22.837Z,66.04
2022-07-29T00:06:22.863Z,65.84
2022-07-29T00:07:22.889Z,65.66
2022-07-29T00:08:22.915Z,65.84
2022-07-29T00:09:22.943Z,65.75
2022-07-29T00:10:22.970Z,65.84
2022-07-29T00:11:22.999Z,65.66
2022-07-29T00:12:26.074Z,65.56
2022-07-29T00:13:32.201Z,65.17
2022-07-29T00:14:23.079Z,65.37
2022-07-29T00:15:23.122Z,66.14
2022-07-29T00:16:23.157Z,66.04
2022-07-29T00:17:23.163Z,65.84
2022-07-29T00:18:23.189Z,66.14
2022-07-29T00:19:23.214Z,66.04
2022-07-29T00:20:23.241Z,66.04
2022-07-29T00:21:23.272Z,65.94
2022-07-29T00:22:23.296Z,66.04
2022-07-29T00:23:23.328Z,65.75
2022-07-29T00:24:23.353Z,66.04
2022-07-29T00:25:23.378Z,66.04
2022-07-29T00:26:23.409Z,66.04
2022-07-29T00:27:23.435Z,65.94
2022-07-29T00:28:23.460Z,66.23
2022-07-29T00:29:38.907Z,66.91
2022-07-29T00:30:23.522Z,66.71
2022-07-29T00:31:23.604Z,66.81
2022-07-29T00:32:23.565Z,66.61
2022-07-29T00:33:23.598Z,66.42
2022-07-29T00:34:23.622Z,66.04
2022-07-29T00:35:23.651Z,66.42
2022-07-29T00:36:23.684Z,66.81
2022-07-29T00:37:23.706Z,66.81
2022-07-29T00:38:23.733Z,66.42
2022-07-29T00:39:23.790Z,66.23
2022-07-29T00:40:23.847Z,66.42
2022-07-29T00:41:23.830Z,66.23
2022-07-29T00:42:23.841Z,66.04
2022-07-29T00:43:23.878Z,66.61
2022-07-29T00:44:23.897Z,66.23
2022-07-29T00:45:23.924Z,65.94
2022-07-29T00:46:23.985Z,65.84
2022-07-29T00:47:23.988Z,65.94
2022-07-29T00:48:24.009Z,65.56
2022-07-29T00:49:24.101Z,65.66
2022-07-29T00:50:24.059Z,65.69
2022-07-29T00:51:24.089Z,65.88
2022-07-29T00:52:24.116Z,66.17
2022-07-29T00:53:24.139Z,66.04
2022-07-29T00:54:24.170Z,65.66
2022-07-29T00:55:24.199Z,66.04
2022-07-29T00:56:24.225Z,65.94
2022-07-29T00:57:24.248Z,65.56
2022-07-29T00:58:24.280Z,66.04
2022-07-29T00:59:24.307Z,65.75
2022-07-29T01:00:24.452Z,66.81
2022-07-29T01:01:24.449Z,66.71
2022-07-29T01:02:31.650Z,66.52
2022-07-29T01:05:49.914Z,66.61
2022-07-29T01:06:32.409Z,66.91
2022-07-29T01:08:36.427Z,67.29
2022-07-29T01:09:46.168Z,67.48
2022-07-29T01:11:41.442Z,67.29
2022-07-29T01:12:40.484Z,67.38
2022-07-29T01:14:44.981Z,67.38
2022-07-29T01:15:49.462Z,67.16
2022-07-29T01:17:52.775Z,67.29
2022-07-29T01:18:48.551Z,67.16
2022-07-29T01:20:53.052Z,67.54
2022-07-29T01:21:52.589Z,67.16
2022-07-29T01:23:56.618Z,67.25
2022-07-29T01:24:56.630Z,67.35
2022-07-29T01:26:50.111Z,67.86
2022-07-29T01:27:49.587Z,68.06
2022-07-29T01:29:53.604Z,67.93
2022-07-29T01:30:53.620Z,67.68
2022-07-29T01:32:58.121Z,67.86
2022-07-29T01:33:57.660Z,68.15
2022-07-29T01:36:02.153Z,68.25
2022-07-29T01:37:01.693Z,67.77
2022-07-29T01:39:05.713Z,67.64
2022-07-29T01:40:05.733Z,67.74
2022-07-29T01:42:13.234Z,67.96
2022-07-29T01:43:09.771Z,67.96
2022-07-29T01:45:13.841Z,67.19
2022-07-29T01:46:13.833Z,67.38
2022-07-29T01:47:13.836Z,67.48
2022-07-29T01:48:13.862Z,67.77
2022-07-29T01:49:13.924Z,67.19
2022-07-29T01:50:13.916Z,67.19
2022-07-29T01:51:13.942Z,67.10
2022-07-29T01:52:13.972Z,67.29
2022-07-29T01:53:13.996Z,67.19
2022-07-29T01:54:14.193Z,67.29
2022-07-29T01:55:14.048Z,67.68
2022-07-29T01:56:14.072Z,67.19
2022-07-29T01:57:14.104Z,67.68
2022-07-29T01:58:14.127Z,67.38
2022-07-29T01:59:14.172Z,67.19
2022-07-29T02:00:14.188Z,67.86
2022-07-29T02:01:14.210Z,67.19
2022-07-29T02:02:14.305Z,67.38
2022-07-29T02:03:14.280Z,67.19
2022-07-29T02:04:28.959Z,67.38
2022-07-29T02:05:14.431Z,67.29
2022-07-29T02:06:14.353Z,67.19
2022-07-29T02:07:14.375Z,67.19
2022-07-29T02:08:14.406Z,67.19
2022-07-29T02:09:14.427Z,67.16
2022-07-29T02:10:14.462Z,67.25
2022-07-29T02:11:14.488Z,67.29
2022-07-29T02:12:14.507Z,67.16
2022-07-29T02:13:14.537Z,67.64
2022-07-29T02:14:14.763Z,67.48
2022-07-29T02:15:14.600Z,67.45
2022-07-29T02:16:14.659Z,67.16
2022-07-29T02:17:14.648Z,67.77
2022-07-29T02:18:14.671Z,67.74
2022-07-29T02:19:14.701Z,67.54
2022-07-29T02:20:14.726Z,67.93
2022-07-29T02:21:15.619Z,68.02
2022-07-29T02:22:14.781Z,68.12
2022-07-29T02:23:14.807Z,68.02
2022-07-29T02:24:15.122Z,67.93
2022-07-29T02:25:14.858Z,68.21
2022-07-29T02:26:14.889Z,67.74
2022-07-29T02:27:14.916Z,67.83
2022-07-29T02:28:14.943Z,67.74
2022-07-29T02:29:14.972Z,67.64
2022-07-29T02:30:14.997Z,67.64
2022-07-29T02:31:15.090Z,68.12
2022-07-29T02:32:15.056Z,68.12
2022-07-29T02:33:15.079Z,68.02
2022-07-29T02:34:15.466Z,68.12
2022-07-29T02:35:15.135Z,68.31
2022-07-29T02:36:15.154Z,68.41
2022-07-29T02:37:15.180Z,68.31
2022-07-29T02:38:15.207Z,67.64
2022-07-29T02:39:15.237Z,68.21
2022-07-29T02:40:15.275Z,67.54
2022-07-29T02:41:15.292Z,68.21
2022-07-29T02:42:15.320Z,68.12
2022-07-29T02:43:15.348Z,68.02
2022-07-29T02:44:15.669Z,67.64
2022-07-29T02:45:15.399Z,67.64
2022-07-29T02:46:29.060Z,67.54
2022-07-29T02:47:15.455Z,67.93
2022-07-29T02:48:15.481Z,68.12
2022-07-29T02:49:15.633Z,68.21
2022-07-29T02:50:15.532Z,68.41
2022-07-29T02:51:43.484Z,68.70
2022-07-29T02:52:15.597Z,68.79
2022-07-29T02:53:15.615Z,68.41
2022-07-29T02:54:15.920Z,68.37
2022-07-29T02:55:15.670Z,68.51
2022-07-29T02:56:15.702Z,68.60
2022-07-29T02:57:15.725Z,68.89
2022-07-29T02:58:15.750Z,68.31
2022-07-29T02:59:15.776Z,68.60
2022-07-29T03:00:15.798Z,68.70
2022-07-29T03:01:21.246Z,68.21
2022-07-29T03:02:15.964Z,68.41
2022-07-29T03:03:15.882Z,68.31
2022-07-29T03:04:16.293Z,68.70
2022-07-29T03:05:15.958Z,68.66
2022-07-29T03:06:37.393Z,68.31
2022-07-29T03:07:15.991Z,68.47
2022-07-29T03:08:16.022Z,68.41
2022-07-29T03:09:16.047Z,68.51
2022-07-29T03:10:16.072Z,68.51
2022-07-29T03:11:16.097Z,68.70
2022-07-29T03:12:16.131Z,68.12
2022-07-29T03:13:16.152Z,68.21
2022-07-29T03:14:16.519Z,68.12
2022-07-29T03:15:16.235Z,68.12
2022-07-29T03:16:16.308Z,68.21
2022-07-29T03:17:16.265Z,68.60
2022-07-29T03:18:16.287Z,68.41
2022-07-29T03:19:16.314Z,68.41
2022-07-29T03:20:16.340Z,68.51
2022-07-29T03:21:16.363Z,68.51
2022-07-29T03:22:16.387Z,68.85
2022-07-29T03:23:16.416Z,68.79
2022-07-29T03:24:16.928Z,68.70
2022-07-29T03:25:16.473Z,68.85
2022-07-29T03:26:16.501Z,68.98
2022-07-29T03:27:16.534Z,68.98
2022-07-29T03:28:16.586Z,68.60
2022-07-29T03:29:16.581Z,68.95
2022-07-29T03:30:18.398Z,68.95
2022-07-29T03:31:16.722Z,69.08
2022-07-29T03:32:16.668Z,68.70
2022-07-29T03:33:16.695Z,69.18
2022-07-29T03:34:17.054Z,69.18
2022-07-29T03:35:16.750Z,69.62
2022-07-29T03:36:16.769Z,69.24
2022-07-29T03:37:16.794Z,69.34
2022-07-29T03:38:16.825Z,69.24
2022-07-29T03:39:16.849Z,69.81
2022-07-29T03:40:16.875Z,69.91
2022-07-29T03:41:16.914Z,70.10
2022-07-29T03:42:16.923Z,70.10
2022-07-29T03:43:16.958Z,69.62
2022-07-29T03:44:17.467Z,69.91
2022-07-29T03:45:17.008Z,69.81
2022-07-29T03:46:17.113Z,70.01
2022-07-29T03:47:17.061Z,69.91
2022-07-29T03:48:17.093Z,70.01
2022-07-29T03:49:17.195Z,69.53
2022-07-29T03:50:17.195Z,70.20
2022-07-29T03:51:17.167Z,70.29
2022-07-29T03:52:17.196Z,70.39
2022-07-29T03:53:17.224Z,70.39
2022-07-29T03:54:17.502Z,70.49
2022-07-29T03:55:17.273Z,70.64
2022-07-29T03:56:17.300Z,70.49
2022-07-29T03:57:17.326Z,70.39
2022-07-29T03:58:17.352Z,70.93
2022-07-29T03:59:17.377Z,70.84
2022-07-29T04:00:17.420Z,71.22
2022-07-29T04:01:17.477Z,71.03
2022-07-29T04:02:21.853Z,71.03
2022-07-29T04:03:17.504Z,70.64
2022-07-29T04:04:18.054Z,70.45
2022-07-29T04:05:17.553Z,70.49
2022-07-29T04:06:17.563Z,70.49
2022-07-29T04:07:17.586Z,70.97
2022-07-29T04:08:17.616Z,70.74
2022-07-29T04:09:17.646Z,71.06
2022-07-29T04:10:17.666Z,71.06
2022-07-29T04:11:17.697Z,70.49
2022-07-29T04:12:17.723Z,70.68
2022-07-29T04:13:17.749Z,70.49
2022-07-29T04:14:18.341Z,70.68
2022-07-29T04:15:17.812Z,70.39
2022-07-29T04:16:17.894Z,70.10
2022-07-29T04:17:17.853Z,70.58
2022-07-29T04:18:17.877Z,69.81
2022-07-29T04:19:17.909Z,70.10
2022-07-29T04:20:17.932Z,70.58
2022-07-29T04:21:17.962Z,70.39
2022-07-29T04:22:17.990Z,70.87
2022-07-29T04:23:18.014Z,70.97
2022-07-29T04:24:18.752Z,70.78
2022-07-29T04:25:18.068Z,70.49
2022-07-29T04:26:18.092Z,70.78
2022-07-29T04:27:18.123Z,69.72
2022-07-29T04:28:18.141Z,69.72
2022-07-29T04:29:18.178Z,69.81
2022-07-29T04:30:18.203Z,70.20
2022-07-29T04:31:21.286Z,70.33
2022-07-29T04:32:18.261Z,70.10
2022-07-29T04:33:18.279Z,69.85
2022-07-29T04:34:19.018Z,69.27
2022-07-29T04:35:18.331Z,69.37
2022-07-29T04:36:28.899Z,69.75
2022-07-29T04:37:18.384Z,69.85
2022-07-29T04:38:18.415Z,69.46
2022-07-29T04:39:22.786Z,69.75
2022-07-29T04:40:18.469Z,69.37
2022-07-29T04:41:18.497Z,69.37
2022-07-29T04:42:18.521Z,69.37
2022-07-29T04:43:22.468Z,69.08
2022-07-29T04:44:18.994Z,69.95
2022-07-29T04:45:22.682Z,70.04
2022-07-29T04:46:18.647Z,69.46
2022-07-29T04:47:18.658Z,69.46
2022-07-29T04:48:18.681Z,69.18
2022-07-29T04:49:18.815Z,69.85
2022-07-29T04:50:18.737Z,70.04
2022-07-29T04:51:18.770Z,70.23
2022-07-29T04:52:18.788Z,70.33
2022-07-29T04:53:18.837Z,69.75
2022-07-29T04:54:19.333Z,69.95
2022-07-29T04:55:18.876Z,69.56
2022-07-29T04:56:18.901Z,69.75
2022-07-29T04:57:18.928Z,69.85
2022-07-29T04:58:18.959Z,69.85
2022-07-29T04:59:18.972Z,69.75
2022-07-29T05:00:19.007Z,69.18
2022-07-29T05:01:19.108Z,68.44
2022-07-29T05:02:19.087Z,68.44
2022-07-29T05:03:19.086Z,68.25
2022-07-29T05:04:19.974Z,68.41
2022-07-29T05:05:19.137Z,68.21
2022-07-29T05:06:19.167Z,68.60
2022-07-29T05:07:19.189Z,68.35
2022-07-29T05:08:19.223Z,68.44
2022-07-29T05:09:19.246Z,68.63
2022-07-29T05:10:19.276Z,68.79
2022-07-29T05:11:21.826Z,68.21
2022-07-29T05:12:19.325Z,69.02
2022-07-29T05:13:19.358Z,69.27
2022-07-29T05:14:19.995Z,69.18
2022-07-29T05:15:19.408Z,69.27
2022-07-29T05:16:19.470Z,69.66
2022-07-29T05:17:19.463Z,69.69
2022-07-29T05:18:19.489Z,69.46
2022-07-29T05:19:19.516Z,69.18
2022-07-29T05:20:19.543Z,68.63
2022-07-29T05:21:19.574Z,68.54
2022-07-29T05:22:19.600Z,68.73
2022-07-29T05:23:19.627Z,68.73
2022-07-29T05:24:20.112Z,68.35
2022-07-29T05:25:19.679Z,68.54
2022-07-29T05:26:19.704Z,68.25
2022-07-29T05:27:19.735Z,68.83
2022-07-29T05:28:19.764Z,68.44
2022-07-29T05:29:43.983Z,68.63
2022-07-29T05:30:19.814Z,68.54
2022-07-29T05:31:19.947Z,68.54
2022-07-29T05:32:19.868Z,68.63
2022-07-29T05:33:35.022Z,68.15
2022-07-29T05:34:19.929Z,68.15
2022-07-29T05:35:19.951Z,68.44
2022-07-29T05:36:19.979Z,68.35
2022-07-29T05:37:20.011Z,67.58
2022-07-29T05:38:20.033Z,67.58
2022-07-29T05:39:20.065Z,68.35
2022-07-29T05:40:20.090Z,67.90
2022-07-29T05:41:20.118Z,67.99
2022-07-29T05:42:20.146Z,67.99
2022-07-29T05:43:20.175Z,68.19
2022-07-29T05:44:20.204Z,67.32
2022-07-29T05:45:20.233Z,67.42
2022-07-29T05:46:20.315Z,67.32
2022-07-29T05:47:20.287Z,67.32
2022-07-29T05:48:20.313Z,67.26
2022-07-29T05:49:26.760Z,66.78
2022-07-29T05:50:20.366Z,67.16
2022-07-29T05:51:20.390Z,66.58
2022-07-29T05:52:20.418Z,66.49
2022-07-29T05:53:21.067Z,66.68
2022-07-29T05:54:20.478Z,66.88
2022-07-29T05:55:20.509Z,65.81
2022-07-29T05:56:20.533Z,66.01
2022-07-29T05:57:20.561Z,65.75
2022-07-29T05:58:20.590Z,65.46
2022-07-29T05:59:20.617Z,65.17
2022-07-29T06:00:20.646Z,65.37
2022-07-29T06:01:20.752Z,65.37
2022-07-29T06:02:20.707Z,65.08
2022-07-29T06:03:20.733Z,64.89
2022-07-29T06:04:21.256Z,65.17
2022-07-29T06:05:20.789Z,65.17
2022-07-29T06:06:20.816Z,64.43
2022-07-29T06:07:20.847Z,64.53
2022-07-29T06:08:20.873Z,64.73
2022-07-29T06:09:20.905Z,64.43
2022-07-29T06:10:20.963Z,64.34
2022-07-29T06:11:20.959Z,64.63
2022-07-29T06:12:20.991Z,63.79
2022-07-29T06:13:21.019Z,64.18
2022-07-29T06:14:21.050Z,64.28
2022-07-29T06:15:21.084Z,63.41
2022-07-29T06:16:30.014Z,63.89
2022-07-29T06:17:21.135Z,63.50
2022-07-29T06:18:21.160Z,63.31
2022-07-29T06:19:21.193Z,62.76
2022-07-29T06:20:26.930Z,62.86
2022-07-29T06:21:21.253Z,62.22
2022-07-29T06:22:21.282Z,62.02
2022-07-29T06:23:21.307Z,61.38
2022-07-29T06:24:21.346Z,60.71
2022-07-29T06:25:21.369Z,60.31
2022-07-29T06:26:31.416Z,60.51
2022-07-29T06:27:21.428Z,59.74
2022-07-29T06:28:21.461Z,60.31
2022-07-29T06:29:21.494Z,59.93
2022-07-29T06:30:21.521Z,59.74
2022-07-29T06:31:21.609Z,60.41
2022-07-29T06:32:23.005Z,60.61
2022-07-29T06:33:21.611Z,60.41
2022-07-29T06:34:21.642Z,60.31
2022-07-29T06:35:39.066Z,60.61
2022-07-29T06:36:22.951Z,60.48
2022-07-29T06:37:21.733Z,60.48
2022-07-29T06:38:31.557Z,60.48
2022-07-29T06:39:21.922Z,60.48
2022-07-29T06:40:21.819Z,60.19
2022-07-29T06:41:21.851Z,61.44
2022-07-29T06:42:21.880Z,61.32
2022-07-29T06:43:21.921Z,60.68
2022-07-29T06:44:21.944Z,61.25
2022-07-29T06:45:21.967Z,60.77
2022-07-29T06:46:22.203Z,61.35
2022-07-29T06:47:22.025Z,61.47
2022-07-29T06:48:22.063Z,60.51
2022-07-29T06:49:22.129Z,60.41
2022-07-29T06:50:22.124Z,59.86
2022-07-29T06:51:23.301Z,59.09
2022-07-29T06:52:22.181Z,58.15
2022-07-29T06:53:22.212Z,57.29
2022-07-29T06:54:22.256Z,56.80
2022-07-29T06:55:24.966Z,57.19
2022-07-29T06:56:22.307Z,56.61
2022-07-29T06:57:22.335Z,57.29
2022-07-29T06:58:22.364Z,57.99
2022-07-29T06:59:30.782Z,56.99
2022-07-29T07:00:22.433Z,56.35
2022-07-29T07:01:22.534Z,55.47
2022-07-29T07:02:22.553Z,56.35
2022-07-29T07:03:22.526Z,56.15
2022-07-29T07:04:29.731Z,55.67
2022-07-29T07:06:16.053Z,56.25
2022-07-29T07:07:15.534Z,56.35
2022-07-29T07:09:19.571Z,55.47
2022-07-29T07:10:19.594Z,54.51
2022-07-29T07:12:24.091Z,55.19
2022-07-29T07:13:23.665Z,56.63
2022-07-29T07:15:39.073Z,55.96
2022-07-29T07:16:27.736Z,55.29
2022-07-29T07:18:32.210Z,56.54
2022-07-29T07:19:31.797Z,56.15
2022-07-29T07:21:36.268Z,55.09
2022-07-29T07:22:38.918Z,55.19
2022-07-29T07:24:39.864Z,55.19
2022-07-29T07:25:39.882Z,54.90
2022-07-29T07:27:44.381Z,55.41
2022-07-29T07:28:43.941Z,54.53
2022-07-29T07:29:44.241Z,54.53
2022-07-29T07:30:44.015Z,54.73
2022-07-29T07:31:44.105Z,54.15
2022-07-29T07:32:44.067Z,53.50
2022-07-29T07:33:44.098Z,53.57
2022-07-29T07:34:44.126Z,53.38
2022-07-29T07:35:44.164Z,53.55
2022-07-29T07:36:44.191Z,53.16
2022-07-29T07:37:44.222Z,53.93
2022-07-29T07:38:44.258Z,54.32
2022-07-29T07:39:44.286Z,54.99
2022-07-29T07:40:44.317Z,54.99
2022-07-29T07:41:44.352Z,54.41
2022-07-29T07:42:44.377Z,54.13
2022-07-29T07:43:44.413Z,55.09
2022-07-29T07:45:10.928Z,54.41
2022-07-29T07:45:44.569Z,54.22
2022-07-29T07:46:44.506Z,54.32
2022-07-29T07:47:44.534Z,54.58
2022-07-29T07:48:44.601Z,54.13
2022-07-29T07:49:44.601Z,54.22
2022-07-29T07:50:44.634Z,54.32
2022-07-29T07:51:44.659Z,54.61
2022-07-29T07:52:44.692Z,54.90
2022-07-29T07:53:44.719Z,54.03
2022-07-29T07:54:44.756Z,55.31
2022-07-29T07:56:09.237Z,54.53
2022-07-29T07:56:44.823Z,53.99
2022-07-29T07:57:44.847Z,54.08
2022-07-29T07:58:44.881Z,53.99
2022-07-29T07:59:44.918Z,54.08
2022-07-29T08:00:45.024Z,53.41
2022-07-29T08:01:47.794Z,53.59
2022-07-29T08:02:45.048Z,53.11
2022-07-29T08:03:45.039Z,52.75
2022-07-29T08:04:45.069Z,53.53
2022-07-29T08:05:45.103Z,52.36
2022-07-29T08:06:45.141Z,52.17
2022-07-29T08:07:45.164Z,52.97
2022-07-29T08:08:45.195Z,53.17
2022-07-29T08:09:45.229Z,52.49
2022-07-29T08:10:45.261Z,52.20
2022-07-29T08:11:51.614Z,52.10
2022-07-29T08:12:45.327Z,52.39
2022-07-29T08:13:45.357Z,52.49
2022-07-29T08:14:45.383Z,52.20
2022-07-29T08:15:45.421Z,51.90
2022-07-29T08:16:45.568Z,52.68
2022-07-29T08:17:45.502Z,51.13
2022-07-29T08:18:45.515Z,52.10
2022-07-29T08:19:45.545Z,52.10
2022-07-29T08:20:45.576Z,52.00
2022-07-29T08:21:45.617Z,52.58
2022-07-29T08:22:45.645Z,52.20
2022-07-29T08:23:49.653Z,52.58
2022-07-29T08:24:45.705Z,52.20
2022-07-29T08:25:45.786Z,51.25
2022-07-29T08:26:45.772Z,52.61
2022-07-29T08:27:45.809Z,50.19
2022-07-29T08:28:45.834Z,50.48
2022-07-29T08:29:45.874Z,49.80
2022-07-29T08:30:45.902Z,49.90
2022-07-29T08:31:45.951Z,49.12
2022-07-29T08:32:54.824Z,49.02
2022-07-29T08:33:46.000Z,48.44
2022-07-29T08:34:46.034Z,48.35
2022-07-29T08:35:46.067Z,48.81
2022-07-29T08:36:46.096Z,49.51
2022-07-29T08:37:46.127Z,50.19
2022-07-29T08:38:46.156Z,50.38
2022-07-29T08:39:46.191Z,49.32
2022-07-29T08:40:46.247Z,49.41
2022-07-29T08:41:57.411Z,48.54
2022-07-29T08:42:46.290Z,47.67
2022-07-29T08:43:46.321Z,47.38
2022-07-29T08:44:46.352Z,47.77
2022-07-29T08:45:48.212Z,48.64
2022-07-29T08:46:46.442Z,49.02
2022-07-29T08:47:46.451Z,49.44
2022-07-29T08:48:46.553Z,49.44
2022-07-29T08:49:46.516Z,48.97
2022-07-29T08:50:46.775Z,48.00
2022-07-29T08:51:49.686Z,46.84
2022-07-29T08:52:46.613Z,47.16
2022-07-29T08:53:46.649Z,46.86
2022-07-29T08:54:46.681Z,47.06
2022-07-29T08:55:46.714Z,45.92
2022-07-29T08:56:46.748Z,45.51
2022-07-29T08:57:51.898Z,47.16
2022-07-29T08:58:50.699Z,47.25
2022-07-29T08:59:46.845Z,46.38
2022-07-29T09:00:46.945Z,47.03
2022-07-29T09:01:46.953Z,46.77
2022-07-29T09:02:46.999Z,46.28
2022-07-29T09:03:47.017Z,45.89
2022-07-29T09:04:47.011Z,47.03
2022-07-29T09:05:48.311Z,47.62
2022-07-29T09:06:47.076Z,47.42
2022-07-29T09:07:47.151Z,48.78
2022-07-29T09:08:47.140Z,48.30
2022-07-29T09:09:47.174Z,48.49
2022-07-29T09:10:47.216Z,47.81
2022-07-29T09:11:47.237Z,49.17
2022-07-29T09:12:47.279Z,49.27
2022-07-29T09:13:47.307Z,49.75
2022-07-29T09:14:47.338Z,49.07
2022-07-29T09:15:47.402Z,49.24
2022-07-29T09:16:59.642Z,49.44
2022-07-29T09:17:47.536Z,49.63
2022-07-29T09:18:47.473Z,49.82
2022-07-29T09:19:47.504Z,49.05
2022-07-29T09:20:47.538Z,49.92
2022-07-29T09:21:47.570Z,50.04
2022-07-29T09:22:47.602Z,50.34
2022-07-29T09:23:47.635Z,50.34
2022-07-29T09:24:47.673Z,50.04
2022-07-29T09:25:47.698Z,48.97
2022-07-29T09:26:47.735Z,48.49
2022-07-29T09:27:47.763Z,48.22
2022-07-29T09:28:47.875Z,47.74
2022-07-29T09:29:47.833Z,48.90
2022-07-29T09:30:47.867Z,47.74
2022-07-29T09:31:47.985Z,47.64
2022-07-29T09:32:47.933Z,47.55
2022-07-29T09:33:47.964Z,48.03
2022-07-29T09:34:48.000Z,48.61
2022-07-29T09:35:56.534Z,48.71
2022-07-29T09:36:48.068Z,47.16
2022-07-29T09:37:48.099Z,46.19
2022-07-29T09:38:48.127Z,46.86
2022-07-29T09:39:48.167Z,47.08
2022-07-29T09:40:48.196Z,46.31
2022-07-29T09:41:48.230Z,47.11
2022-07-29T09:42:48.264Z,47.98
2022-07-29T09:43:48.295Z,47.98
2022-07-29T09:44:48.330Z,47.01
2022-07-29T09:45:48.365Z,47.03
2022-07-29T09:46:48.526Z,46.06
2022-07-29T09:47:48.432Z,47.32
2022-07-29T09:48:48.502Z,45.21
2022-07-29T09:49:48.504Z,44.53
2022-07-29T09:50:48.540Z,44.33
2022-07-29T09:51:48.564Z,44.72
2022-07-29T09:52:48.609Z,44.33
2022-07-29T09:53:48.639Z,43.95
2022-07-29T09:54:48.672Z,44.33
2022-07-29T09:55:48.703Z,44.82
2022-07-29T09:56:48.740Z,44.92
2022-07-29T09:57:48.783Z,45.89
2022-07-29T09:58:48.803Z,46.08
2022-07-29T09:59:49.955Z,45.60
2022-07-29T10:00:48.943Z,45.69
2022-07-29T10:01:48.907Z,46.06
2022-07-29T10:02:48.950Z,45.28
2022-07-29T10:03:49.031Z,46.28
2022-07-29T10:04:49.014Z,45.18
2022-07-29T10:05:49.045Z,46.06
2022-07-29T10:06:49.075Z,47.13
2022-07-29T10:07:53.464Z,47.03
2022-07-29T10:08:49.147Z,46.35
2022-07-29T10:09:49.182Z,46.45
2022-07-29T10:10:49.230Z,46.84
2022-07-29T10:11:49.981Z,47.03
2022-07-29T10:12:49.287Z,47.15
2022-07-29T10:13:49.322Z,45.89
2022-07-29T10:14:49.352Z,46.47
2022-07-29T10:15:49.425Z,46.47
2022-07-29T10:16:49.417Z,46.47
2022-07-29T10:17:49.450Z,46.28
2022-07-29T10:18:49.488Z,45.98
2022-07-29T10:19:49.515Z,45.69
2022-07-29T10:20:49.552Z,45.11
2022-07-29T10:21:49.591Z,45.79
2022-07-29T10:22:53.945Z,46.37
2022-07-29T10:23:49.659Z,46.37
2022-07-29T10:24:49.723Z,47.05
2022-07-29T10:25:49.720Z,47.44
2022-07-29T10:26:49.753Z,48.49
2022-07-29T10:27:49.789Z,48.88
2022-07-29T10:28:49.823Z,48.00
2022-07-29T10:29:49.853Z,48.78
2022-07-29T10:30:49.888Z,47.71
2022-07-29T10:31:49.976Z,47.61
2022-07-29T10:32:53.829Z,48.00
2022-07-29T10:33:49.992Z,47.13
2022-07-29T10:34:50.030Z,46.25
2022-07-29T10:35:50.055Z,46.08
2022-07-29T10:36:50.094Z,47.34
2022-07-29T10:37:50.125Z,47.15
2022-07-29T10:38:50.161Z,46.37
2022-07-29T10:39:50.210Z,46.01
2022-07-29T10:40:50.227Z,44.94
2022-07-29T10:41:50.262Z,44.74
2022-07-29T10:42:50.301Z,45.23
2022-07-29T10:43:51.277Z,45.23
2022-07-29T10:44:50.372Z,46.01
2022-07-29T10:45:50.398Z,45.84
2022-07-29T10:46:50.474Z,44.48
2022-07-29T10:47:50.466Z,45.45
2022-07-29T10:48:50.538Z,45.14
2022-07-29T10:49:50.535Z,45.32
2022-07-29T10:50:50.568Z,45.14
2022-07-29T10:51:50.599Z,44.74
2022-07-29T10:52:50.641Z,45.32
2022-07-29T10:53:51.039Z,44.94
2022-07-29T10:54:50.702Z,45.04
2022-07-29T10:55:50.738Z,45.04
2022-07-29T10:56:50.773Z,45.04
2022-07-29T10:57:57.687Z,45.72
2022-07-29T10:58:52.706Z,45.81
2022-07-29T10:59:53.050Z,45.91
2022-07-29T11:00:50.913Z,45.23
2022-07-29T11:01:53.657Z,45.72
2022-07-29T11:02:51.210Z,46.30
2022-07-29T11:03:53.825Z,45.62
2022-07-29T11:04:51.048Z,45.32
2022-07-29T11:05:51.081Z,45.62
2022-07-29T11:06:51.116Z,45.54
2022-07-29T11:07:51.151Z,45.15
2022-07-29T11:08:51.181Z,45.32
2022-07-29T11:09:51.213Z,46.98
2022-07-29T11:10:51.261Z,46.81
2022-07-29T11:11:51.577Z,45.35
2022-07-29T11:12:51.320Z,45.32
2022-07-29T11:13:51.350Z,45.62
2022-07-29T11:14:51.395Z,45.81
2022-07-29T11:15:51.423Z,45.35
2022-07-29T11:16:51.457Z,45.06
2022-07-29T11:17:53.006Z,44.86
2022-07-29T11:18:51.529Z,44.67
2022-07-29T11:19:52.322Z,44.96
2022-07-29T11:20:51.592Z,44.76
2022-07-29T11:21:55.135Z,43.70
2022-07-29T11:22:51.665Z,44.38
2022-07-29T11:23:51.703Z,44.48
2022-07-29T11:24:51.732Z,44.38
2022-07-29T11:25:52.643Z,44.96
2022-07-29T11:26:51.802Z,44.96
2022-07-29T11:27:51.837Z,45.06
2022-07-29T11:28:51.865Z,44.55
2022-07-29T11:29:51.903Z,44.38
2022-07-29T11:30:51.947Z,44.67
2022-07-29T11:31:51.968Z,44.96
2022-07-29T11:32:52.005Z,44.65
2022-07-29T11:33:56.021Z,44.28
2022-07-29T11:34:52.069Z,44.48
2022-07-29T11:36:00.889Z,44.67
2022-07-29T11:36:52.139Z,44.86
2022-07-29T11:38:52.209Z,44.76
2022-07-29T11:39:52.243Z,44.57
2022-07-29T11:40:52.278Z,44.38
2022-07-29T11:41:52.307Z,45.15
2022-07-29T11:42:52.578Z,46.03
2022-07-29T11:43:52.391Z,45.32
2022-07-29T11:44:52.415Z,46.01
2022-07-29T11:45:52.446Z,46.01
2022-07-29T11:46:53.928Z,45.32
2022-07-29T11:47:52.602Z,45.91
2022-07-29T11:48:52.597Z,45.32
2022-07-29T11:49:52.584Z,44.65
2022-07-29T11:50:52.639Z,44.65
2022-07-29T11:51:52.657Z,44.14
2022-07-29T11:52:52.701Z,44.35
2022-07-29T11:53:52.805Z,45.14
2022-07-29T11:55:52.786Z,44.94
2022-07-29T11:56:52.818Z,44.74
2022-07-29T11:58:03.841Z,44.55
2022-07-29T11:58:52.897Z,45.23
2022-07-29T11:59:52.919Z,45.04
2022-07-29T12:00:52.966Z,44.76
2022-07-29T12:02:06.680Z,44.26
2022-07-29T12:02:53.027Z,44.09
2022-07-29T12:03:53.088Z,44.06
2022-07-29T12:04:53.113Z,43.21
2022-07-29T12:05:53.128Z,42.60
2022-07-29T12:06:53.163Z,42.31
2022-07-29T12:07:03.499Z,44.35
2022-07-29T12:07:53.194Z,42.99
2022-07-29T12:08:53.229Z,43.77
2022-07-29T12:09:53.265Z,44.06
2022-07-29T12:10:53.301Z,43.77
2022-07-29T12:11:53.331Z,43.38
2022-07-29T12:12:53.375Z,43.67
2022-07-29T12:13:53.400Z,44.06
2022-07-29T12:14:53.441Z,44.45
2022-07-29T12:15:53.522Z,45.23
2022-07-29T12:16:53.573Z,45.06
2022-07-29T12:17:53.536Z,44.28
2022-07-29T12:18:53.570Z,44.18
2022-07-29T12:19:53.616Z,43.89
2022-07-29T12:20:53.642Z,43.38
2022-07-29T12:21:56.631Z,43.58
2022-07-29T12:22:53.711Z,43.29
2022-07-29T12:23:53.741Z,44.06
2022-07-29T12:25:02.201Z,44.35
2022-07-29T12:25:53.814Z,44.55
2022-07-29T12:26:53.841Z,44.86
2022-07-29T12:27:53.874Z,44.67
2022-07-29T12:28:54.743Z,44.09
2022-07-29T12:29:53.944Z,44.38
2022-07-29T12:30:53.977Z,44.16
2022-07-29T12:31:54.037Z,43.96
2022-07-29T12:32:54.051Z,44.55
2022-07-29T12:33:54.080Z,44.65
2022-07-29T12:34:54.126Z,44.45
2022-07-29T12:36:06.169Z,43.96
2022-07-29T12:36:54.182Z,44.16
2022-07-29T12:37:54.212Z,44.28
2022-07-29T12:38:54.252Z,44.45
2022-07-29T12:39:54.283Z,43.96
2022-07-29T12:40:54.322Z,44.16
2022-07-29T12:41:54.351Z,43.96
2022-07-29T12:42:54.414Z,44.35
2022-07-29T12:43:54.421Z,44.35
2022-07-29T12:44:54.451Z,44.84
2022-07-29T12:45:54.488Z,44.35
2022-07-29T12:46:54.597Z,44.55
2022-07-29T12:47:54.558Z,44.55
2022-07-29T12:48:54.635Z,44.94
2022-07-29T12:49:54.623Z,44.84
2022-07-29T12:50:54.663Z,45.14
2022-07-29T12:51:55.004Z,45.42
2022-07-29T12:52:54.725Z,46.01
2022-07-29T12:53:54.760Z,45.14
2022-07-29T12:54:54.793Z,45.14
2022-07-29T12:55:54.826Z,44.74
2022-07-29T12:56:54.863Z,45.14
2022-07-29T12:57:54.896Z,44.94
2022-07-29T12:58:54.927Z,44.45
2022-07-29T12:59:55.024Z,44.86
2022-07-29T13:00:55.055Z,45.64
2022-07-29T13:01:55.253Z,45.81
2022-07-29T13:02:55.137Z,46.51
2022-07-29T13:03:57.380Z,44.94
2022-07-29T13:04:55.134Z,45.23
2022-07-29T13:05:55.163Z,46.01
2022-07-29T13:06:55.198Z,45.72
2022-07-29T13:07:57.346Z,45.04
2022-07-29T13:08:55.290Z,45.32
2022-07-29T13:09:55.303Z,45.23
2022-07-29T13:10:55.331Z,44.65
2022-07-29T13:11:55.366Z,45.14
2022-07-29T13:12:55.401Z,45.23
2022-07-29T13:14:06.544Z,45.91
2022-07-29T13:14:55.487Z,44.94
2022-07-29T13:15:55.504Z,46.20
2022-07-29T13:16:55.619Z,45.62
2022-07-29T13:17:55.568Z,47.17